Time;durP1;ratioP1;P1;durP2;ratioP2;P2;SDS_P1;SDS_P2;PMS_P1;PMS_P2;Temp;Humidity;BMP_temperature;BMP_pressure;BME280_temperature;BME280_humidity;BME280_pressure;Samples;Min_cycle;Max_cycle;Signal;HPM_P1;HPM_P2
2023/04/29 00:00:43;;;;;;;28.58;24.17;;;14.20;99.90;;;;;;2094115;28;20025;-72
2023/04/29 00:01:44;;;;;;;29.67;24.85;;;14.20;99.90;;;;;;2094675;28;20376;-72
2023/04/29 00:02:44;;;;;;;28.48;24.90;;;14.20;99.90;;;;;;2092796;28;20048;-72
2023/04/29 00:03:45;;;;;;;26.55;23.45;;;14.20;99.90;;;;;;2095150;28;20021;-73
2023/04/29 00:04:45;;;;;;;27.95;24.05;;;14.20;99.90;;;;;;2095021;28;20139;-72
2023/04/29 00:05:46;;;;;;;28.17;23.35;;;14.20;99.90;;;;;;2094485;28;20028;-72
2023/04/29 00:06:46;;;;;;;26.55;23.67;;;14.20;99.90;;;;;;2091359;28;20051;-72
2023/04/29 00:07:47;;;;;;;29.83;23.30;;;14.20;99.90;;;;;;2090484;28;20049;-73
2023/04/29 00:08:47;;;;;;;28.67;24.20;;;14.20;99.90;;;;;;2095031;28;20024;-72
2023/04/29 00:09:48;;;;;;;28.70;24.00;;;14.20;99.90;;;;;;2092817;28;20108;-73
2023/04/29 00:10:49;;;;;;;30.42;24.98;;;14.20;99.90;;;;;;2090495;28;20021;-73
2023/04/29 00:11:50;;;;;;;26.73;23.40;;;14.20;99.90;;;;;;2092838;28;20032;-72
2023/04/29 00:12:51;;;;;;;30.05;24.20;;;14.10;99.90;;;;;;2092821;28;20062;-72
2023/04/29 00:13:51;;;;;;;30.20;25.65;;;14.10;99.90;;;;;;2092257;28;20572;-72
2023/04/29 00:14:52;;;;;;;33.97;25.73;;;14.10;99.90;;;;;;2092829;28;20036;-72
2023/04/29 00:15:52;;;;;;;31.42;26.38;;;14.10;99.90;;;;;;2090395;28;20059;-72
2023/04/29 00:16:53;;;;;;;31.88;25.67;;;14.10;99.90;;;;;;2091839;28;20029;-73
2023/04/29 00:17:53;;;;;;;33.47;26.48;;;14.10;99.90;;;;;;2092386;28;20487;-72
2023/04/29 00:18:54;;;;;;;33.55;27.65;;;14.10;99.90;;;;;;2091278;28;20070;-72
2023/04/29 00:19:54;;;;;;;30.20;26.67;;;14.00;99.90;;;;;;2093197;28;20470;-73
2023/04/29 00:20:55;;;;;;;31.73;26.58;;;14.00;99.90;;;;;;2093844;28;20020;-72
2023/04/29 00:21:55;;;;;;;33.33;27.15;;;14.00;99.90;;;;;;2092964;28;20108;-72
2023/04/29 00:22:56;;;;;;;31.98;26.23;;;14.00;99.90;;;;;;2092666;28;20028;-72
2023/04/29 00:23:57;;;;;;;34.38;28.10;;;14.00;99.90;;;;;;2093129;28;20475;-73
2023/04/29 00:24:57;;;;;;;32.88;27.40;;;14.00;99.90;;;;;;2092231;28;20111;-72
2023/04/29 00:25:58;;;;;;;40.17;29.30;;;13.90;99.90;;;;;;2091991;28;20104;-73
2023/04/29 00:26:58;;;;;;;36.15;28.50;;;13.90;99.90;;;;;;2094108;28;20388;-72
2023/04/29 00:28:00;;;;;;;34.03;28.38;;;13.90;99.90;;;;;;2094774;28;20052;-72
2023/04/29 00:29:01;;;;;;;36.58;29.52;;;13.80;99.90;;;;;;2092652;28;20123;-72
2023/04/29 00:30:02;;;;;;;35.72;27.17;;;13.80;99.90;;;;;;2091716;28;20028;-72
2023/04/29 00:31:03;;;;;;;34.92;28.08;;;13.80;99.90;;;;;;2092336;28;20020;-72
2023/04/29 00:32:04;;;;;;;34.55;28.13;;;13.80;99.90;;;;;;2092468;28;20032;-72
2023/04/29 00:33:04;;;;;;;45.08;30.25;;;13.80;99.90;;;;;;2091608;28;20032;-72
2023/04/29 00:34:05;;;;;;;36.20;28.55;;;13.80;99.90;;;;;;2092072;28;20052;-72
2023/04/29 00:35:06;;;;;;;34.90;29.05;;;13.80;99.90;;;;;;2093899;28;20021;-73
2023/04/29 00:36:07;;;;;;;36.28;29.10;;;13.80;99.90;;;;;;2092364;28;20480;-73
2023/04/29 00:37:07;;;;;;;33.67;28.23;;;13.80;99.90;;;;;;2093011;28;20032;-72
2023/04/29 00:38:08;;;;;;;36.83;27.98;;;13.80;99.90;;;;;;2096018;28;20051;-72
2023/04/29 00:39:08;;;;;;;34.45;28.55;;;13.80;99.90;;;;;;2091107;28;20029;-72
2023/04/29 00:40:09;;;;;;;34.72;27.67;;;13.80;99.90;;;;;;2090312;28;20037;-72
2023/04/29 00:41:10;;;;;;;37.75;29.95;;;13.70;99.90;;;;;;2092574;28;20021;-72
2023/04/29 00:42:11;;;;;;;34.67;28.58;;;13.80;99.90;;;;;;2094080;28;20036;-73
2023/04/29 00:43:12;;;;;;;36.30;28.25;;;13.80;99.90;;;;;;2093246;28;20036;-72
2023/04/29 00:44:12;;;;;;;38.60;30.15;;;13.80;99.90;;;;;;2092901;28;20037;-72
2023/04/29 00:45:13;;;;;;;37.42;29.67;;;13.80;99.90;;;;;;2091496;28;20021;-73
2023/04/29 00:46:13;;;;;;;39.15;30.40;;;13.80;99.90;;;;;;2093038;28;20589;-73
2023/04/29 00:47:14;;;;;;;37.03;29.20;;;13.80;99.90;;;;;;2093341;28;20059;-72
2023/04/29 00:48:14;;;;;;;39.20;29.88;;;13.80;99.90;;;;;;2091626;28;20031;-72
2023/04/29 00:49:15;;;;;;;40.35;30.60;;;13.80;99.90;;;;;;2092296;28;20024;-73
2023/04/29 00:50:15;;;;;;;37.33;29.85;;;13.80;99.90;;;;;;2092475;28;20094;-72
2023/04/29 00:51:17;;;;;;;41.08;31.95;;;13.80;99.90;;;;;;2090814;28;20028;-73
2023/04/29 00:52:18;;;;;;;38.15;30.23;;;13.80;99.90;;;;;;2092779;28;20036;-72
2023/04/29 00:53:19;;;;;;;40.70;31.65;;;13.80;99.90;;;;;;2091560;28;20035;-72
2023/04/29 00:54:20;;;;;;;34.13;27.70;;;13.80;99.90;;;;;;2092712;28;20177;-72
2023/04/29 00:55:22;;;;;;;37.25;29.35;;;13.80;99.90;;;;;;2092644;28;20027;-72
2023/04/29 00:56:23;;;;;;;38.75;31.52;;;13.80;99.90;;;;;;2092293;28;20017;-73
2023/04/29 00:57:24;;;;;;;33.72;27.38;;;13.80;99.90;;;;;;2095062;28;20033;-72
2023/04/29 00:58:31;;;;;;;38.95;31.42;;;13.80;99.90;;;;;;2092390;28;21574;-72
2023/04/29 00:59:33;;;;;;;41.38;30.83;;;13.80;99.90;;;;;;2093380;28;20040;-72
2023/04/29 01:00:33;;;;;;;41.92;30.00;;;13.80;99.90;;;;;;2092496;28;20166;-73
2023/04/29 01:01:35;;;;;;;43.20;32.50;;;13.80;99.90;;;;;;2091960;28;20064;-72
2023/04/29 01:02:37;;;;;;;39.65;31.80;;;13.80;99.90;;;;;;2092157;28;20028;-73
2023/04/29 01:03:38;;;;;;;42.17;32.13;;;13.80;99.90;;;;;;2092560;28;20017;-73
2023/04/29 01:04:39;;;;;;;43.42;33.47;;;13.80;99.90;;;;;;2093814;28;20013;-73
2023/04/29 01:05:40;;;;;;;42.65;32.15;;;13.70;99.90;;;;;;2092486;28;20020;-72
2023/04/29 01:06:53;;;;;;;45.67;34.08;;;13.80;99.90;;;;;;2093117;28;20045;-73
2023/04/29 01:08:05;;;;;;;46.15;34.22;;;13.80;99.90;;;;;;2092199;28;20559;-72
2023/04/29 01:09:34;;;;;;;44.33;33.67;;;13.70;99.90;;;;;;2092830;28;20427;-72
2023/04/29 01:10:56;;;;;;;52.67;35.70;;;13.70;99.90;;;;;;2092480;28;20024;-72
2023/04/29 01:12:21;;;;;;;51.88;37.80;;;13.70;99.90;;;;;;2091322;28;20025;-73
2023/04/29 01:13:49;;;;;;;54.95;35.28;;;13.60;99.90;;;;;;2092949;28;20032;-72
2023/04/29 01:15:27;;;;;;;54.22;37.28;;;13.60;99.90;;;;;;2092109;28;20520;-72
2023/04/29 01:16:39;;;;;;;52.30;38.72;;;13.50;99.90;;;;;;2089666;28;20029;-73
2023/04/29 01:17:45;;;;;;;57.70;40.83;;;13.50;99.90;;;;;;2090087;28;20025;-73
2023/04/29 01:18:51;;;;;;;61.30;43.08;;;13.50;99.90;;;;;;2091259;28;20037;-72
2023/04/29 01:19:55;;;;;;;59.38;42.63;;;13.50;99.90;;;;;;2089525;28;20024;-72
2023/04/29 01:20:57;;;;;;;64.45;44.10;;;13.50;99.90;;;;;;2090937;28;20028;-72
2023/04/29 01:21:58;;;;;;;64.13;45.05;;;13.50;99.90;;;;;;2090485;28;20048;-72
2023/04/29 01:22:58;;;;;;;65.25;45.70;;;13.50;99.90;;;;;;2091385;28;20040;-72
2023/04/29 01:23:59;;;;;;;68.18;46.72;;;13.50;99.90;;;;;;2091303;28;20025;-72
2023/04/29 01:25:00;;;;;;;67.65;46.38;;;13.50;99.90;;;;;;2090446;28;20147;-72
2023/04/29 01:26:00;;;;;;;67.03;46.90;;;13.50;99.90;;;;;;2090360;28;20090;-72
2023/04/29 01:27:28;;;;;;;64.65;46.78;;;13.50;99.90;;;;;;2092482;28;20434;-72
2023/04/29 01:29:00;;;;;;;73.13;48.55;;;13.50;99.90;;;;;;2092003;28;20067;-72
2023/04/29 01:30:11;;;;;;;71.40;48.35;;;13.40;99.90;;;;;;2090893;28;20025;-72
2023/04/29 01:31:20;;;;;;;71.20;48.95;;;13.40;99.90;;;;;;2093699;28;20035;-72
2023/04/29 01:32:37;;;;;;;65.70;44.65;;;13.40;99.90;;;;;;2092297;28;20028;-73
2023/04/29 01:33:58;;;;;;;68.50;48.58;;;13.30;99.90;;;;;;2093203;28;20044;-72
2023/04/29 01:35:22;;;;;;;66.60;46.38;;;13.30;99.90;;;;;;2090985;28;20063;-72
2023/04/29 01:36:41;;;;;;;62.40;43.70;;;13.20;99.90;;;;;;2085120;28;20159;-72
2023/04/29 01:37:48;;;;;;;70.10;45.38;;;13.30;99.90;;;;;;2089247;28;20028;-73
2023/04/29 01:39:13;;;;;;;76.13;50.45;;;13.20;99.90;;;;;;2091643;28;20065;-72
2023/04/29 01:40:24;;;;;;;69.05;45.97;;;13.20;99.90;;;;;;2092260;28;20028;-72
2023/04/29 01:41:48;;;;;;;70.43;46.83;;;13.20;99.90;;;;;;2090635;28;20024;-72
2023/04/29 01:43:00;;;;;;;67.65;45.50;;;13.20;99.90;;;;;;2091647;28;20115;-72
2023/04/29 01:44:03;;;;;;;75.13;51.10;;;13.20;99.90;;;;;;2092769;28;20083;-73
2023/04/29 01:45:07;;;;;;;73.57;49.72;;;13.20;99.90;;;;;;2092560;28;20023;-72
2023/04/29 01:46:12;;;;;;;78.15;51.72;;;13.20;99.90;;;;;;2091995;28;20029;-72
2023/04/29 01:47:13;;;;;;;70.82;47.45;;;13.20;99.90;;;;;;2092401;28;20028;-72
2023/04/29 01:48:14;;;;;;;70.32;49.47;;;13.20;99.90;;;;;;2093089;28;20166;-72
2023/04/29 01:49:18;;;;;;;72.43;48.95;;;13.20;99.90;;;;;;2093518;28;20119;-72
2023/04/29 01:50:20;;;;;;;74.50;48.50;;;13.30;99.90;;;;;;2091042;28;20025;-72
2023/04/29 01:51:21;;;;;;;71.72;47.60;;;13.30;99.90;;;;;;2093505;28;20024;-73
2023/04/29 01:52:22;;;;;;;65.00;45.78;;;13.20;99.90;;;;;;2091125;28;20707;-73
2023/04/29 01:53:23;;;;;;;65.80;46.42;;;13.20;99.90;;;;;;2094055;28;20055;-73
2023/04/29 01:54:23;;;;;;;70.25;48.33;;;13.20;99.90;;;;;;2092374;28;20024;-73
2023/04/29 01:55:24;;;;;;;71.57;48.75;;;13.30;99.90;;;;;;2090992;28;20055;-73
2023/04/29 01:56:25;;;;;;;69.07;48.10;;;13.30;99.90;;;;;;2092659;28;20028;-73
2023/04/29 01:57:25;;;;;;;68.40;46.67;;;13.30;99.90;;;;;;2093345;28;20527;-72
2023/04/29 01:58:27;;;;;;;68.93;46.42;;;13.30;99.90;;;;;;2091510;28;20096;-72
2023/04/29 01:59:27;;;;;;;77.18;49.50;;;13.30;99.90;;;;;;2095420;28;20017;-72
2023/04/29 02:00:28;;;;;;;74.45;50.03;;;13.30;99.90;;;;;;2092213;28;20127;-72
2023/04/29 02:01:28;;;;;;;74.75;47.47;;;13.20;99.90;;;;;;2091243;28;20021;-72
2023/04/29 02:02:29;;;;;;;72.82;46.35;;;13.20;99.90;;;;;;2089685;28;20024;-72
2023/04/29 02:03:30;;;;;;;74.65;46.58;;;13.20;99.90;;;;;;2090041;28;20052;-72
2023/04/29 02:04:32;;;;;;;72.85;45.22;;;13.20;99.90;;;;;;2091929;28;20028;-72
2023/04/29 02:05:33;;;;;;;74.25;48.00;;;13.10;99.90;;;;;;2089149;28;20020;-73
2023/04/29 02:06:33;;;;;;;75.03;45.33;;;13.10;99.90;;;;;;2090542;28;20029;-72
2023/04/29 02:07:34;;;;;;;71.72;44.47;;;13.10;99.90;;;;;;2094007;28;20030;-72
2023/04/29 02:08:35;;;;;;;69.65;44.40;;;13.10;99.90;;;;;;2090492;28;20040;-73
2023/04/29 02:09:35;;;;;;;72.57;45.17;;;13.10;99.90;;;;;;2093191;28;20108;-72
2023/04/29 02:10:36;;;;;;;74.75;45.65;;;13.00;99.90;;;;;;2090775;28;20035;-72
2023/04/29 02:11:36;;;;;;;74.85;44.65;;;13.00;99.90;;;;;;2090968;28;20036;-72
2023/04/29 02:12:37;;;;;;;68.70;42.20;;;13.00;99.90;;;;;;2094362;28;20083;-73
2023/04/29 02:13:37;;;;;;;69.07;44.22;;;13.00;99.90;;;;;;2092465;28;20028;-72
2023/04/29 02:14:38;;;;;;;72.10;42.72;;;12.90;99.90;;;;;;2093925;28;20510;-72
2023/04/29 02:15:38;;;;;;;66.75;42.28;;;12.90;99.90;;;;;;2093654;28;20107;-73
2023/04/29 02:16:39;;;;;;;64.68;41.92;;;12.90;99.90;;;;;;2091462;28;20503;-73
2023/04/29 02:17:40;;;;;;;69.25;42.35;;;12.90;99.90;;;;;;2091248;28;20499;-72
2023/04/29 02:18:40;;;;;;;65.22;40.95;;;12.80;99.90;;;;;;2092696;28;20124;-72
2023/04/29 02:19:41;;;;;;;59.33;40.60;;;12.80;99.90;;;;;;2093123;28;20115;-72
2023/04/29 02:20:42;;;;;;;64.40;41.60;;;12.90;99.90;;;;;;2091593;28;20029;-72
2023/04/29 02:21:42;;;;;;;64.38;40.40;;;12.80;99.90;;;;;;2092623;28;20033;-73
2023/04/29 02:22:43;;;;;;;68.25;42.78;;;12.80;99.90;;;;;;2091720;28;20059;-73
2023/04/29 02:23:44;;;;;;;64.20;41.80;;;12.80;99.90;;;;;;2091937;28;21189;-73
2023/04/29 02:24:45;;;;;;;64.72;42.50;;;12.90;99.90;;;;;;2093628;28;20054;-73
2023/04/29 02:25:45;;;;;;;66.80;40.75;;;12.80;99.90;;;;;;2091796;28;20095;-72
2023/04/29 02:26:46;;;;;;;65.03;42.88;;;12.80;99.90;;;;;;2094886;28;20027;-72
2023/04/29 02:27:46;;;;;;;65.40;40.60;;;12.80;99.90;;;;;;2085401;28;20025;-72
2023/04/29 02:28:47;;;;;;;59.60;40.08;;;12.80;99.90;;;;;;2093710;28;20095;-72
2023/04/29 02:29:47;;;;;;;63.13;41.15;;;12.80;99.90;;;;;;2091458;28;20021;-72
2023/04/29 02:30:48;;;;;;;64.10;42.30;;;12.80;99.90;;;;;;2092535;28;20019;-72
2023/04/29 02:31:49;;;;;;;58.53;40.97;;;12.80;99.90;;;;;;2092267;28;20684;-73
2023/04/29 02:32:50;;;;;;;60.75;40.33;;;12.80;99.90;;;;;;2090798;28;20534;-73
2023/04/29 02:33:50;;;;;;;58.70;40.92;;;12.80;99.90;;;;;;2093350;28;20100;-72
2023/04/29 02:34:51;;;;;;;62.20;41.40;;;12.80;99.90;;;;;;2092425;28;20128;-73
2023/04/29 02:35:52;;;;;;;58.88;40.60;;;12.80;99.90;;;;;;2091973;28;20025;-72
2023/04/29 02:36:52;;;;;;;67.40;41.92;;;12.80;99.90;;;;;;2091710;28;20051;-72
2023/04/29 02:37:53;;;;;;;60.13;41.08;;;12.80;99.90;;;;;;2093223;28;20032;-72
2023/04/29 02:38:55;;;;;;;65.75;42.78;;;12.80;99.90;;;;;;2093142;28;20050;-72
2023/04/29 02:39:56;;;;;;;60.25;39.88;;;12.70;99.90;;;;;;2093620;28;20487;-72
2023/04/29 02:40:56;;;;;;;60.28;39.78;;;12.80;99.90;;;;;;2091615;28;20161;-72
2023/04/29 02:41:57;;;;;;;61.38;40.50;;;12.80;99.90;;;;;;2091665;28;20020;-73
2023/04/29 02:42:58;;;;;;;59.85;40.50;;;12.80;99.90;;;;;;2092748;28;20025;-73
2023/04/29 02:43:59;;;;;;;60.75;40.22;;;12.70;99.90;;;;;;2089711;28;20032;-73
2023/04/29 02:44:59;;;;;;;64.57;42.08;;;12.80;99.90;;;;;;2091900;28;20025;-72
2023/04/29 02:46:01;;;;;;;57.05;40.67;;;12.70;99.90;;;;;;2091199;28;20036;-72
2023/04/29 02:47:01;;;;;;;56.70;39.30;;;12.70;99.90;;;;;;2092000;28;20494;-72
2023/04/29 02:48:02;;;;;;;57.45;40.25;;;12.70;99.90;;;;;;2091061;28;20023;-73
2023/04/29 02:49:02;;;;;;;58.35;39.30;;;12.70;99.90;;;;;;2090355;28;20035;-73
2023/04/29 02:50:03;;;;;;;59.15;39.63;;;12.80;99.90;;;;;;2091287;28;20020;-72
2023/04/29 02:51:04;;;;;;;58.10;39.88;;;12.80;99.90;;;;;;2091265;28;20472;-72
2023/04/29 02:52:04;;;;;;;56.55;38.97;;;12.80;99.90;;;;;;2091828;28;20025;-72
2023/04/29 02:53:05;;;;;;;56.75;39.30;;;12.80;99.90;;;;;;2092738;28;20760;-73
2023/04/29 02:54:06;;;;;;;52.97;37.10;;;12.80;99.90;;;;;;2091772;28;20021;-73
2023/04/29 02:55:07;;;;;;;56.30;39.50;;;12.80;99.90;;;;;;2091623;28;20025;-72
2023/04/29 02:56:08;;;;;;;53.40;38.33;;;12.80;99.90;;;;;;2089832;28;20045;-72
2023/04/29 02:57:09;;;;;;;54.58;37.40;;;12.80;99.90;;;;;;2090610;28;20040;-72
2023/04/29 02:58:09;;;;;;;50.72;35.80;;;12.80;99.90;;;;;;2091377;28;20025;-73
2023/04/29 02:59:10;;;;;;;51.83;36.58;;;12.80;99.90;;;;;;2091054;28;20032;-73
2023/04/29 03:00:11;;;;;;;54.67;38.92;;;12.80;99.90;;;;;;2090522;28;20031;-72
2023/04/29 03:01:11;;;;;;;44.40;32.10;;;12.80;99.90;;;;;;2093054;28;20020;-72
2023/04/29 03:02:12;;;;;;;54.13;37.08;;;12.90;99.90;;;;;;2090637;28;20024;-72
2023/04/29 03:03:12;;;;;;;52.30;37.08;;;12.90;99.90;;;;;;2089059;28;20456;-72
2023/04/29 03:04:13;;;;;;;51.83;37.00;;;12.90;99.90;;;;;;2093266;28;21801;-72
2023/04/29 03:05:14;;;;;;;50.25;35.47;;;12.80;99.90;;;;;;2090406;28;20082;-72
2023/04/29 03:06:14;;;;;;;48.92;35.22;;;12.80;99.90;;;;;;2094526;28;20412;-72
2023/04/29 03:07:16;;;;;;;49.20;34.63;;;12.80;99.90;;;;;;2093693;28;20032;-72
2023/04/29 03:08:16;;;;;;;47.20;34.95;;;12.80;99.90;;;;;;2092419;28;20098;-72
2023/04/29 03:09:17;;;;;;;47.83;34.63;;;12.80;99.90;;;;;;2092336;28;20083;-73
2023/04/29 03:10:18;;;;;;;47.63;33.00;;;12.80;99.90;;;;;;2090487;28;20051;-72
2023/04/29 03:11:19;;;;;;;51.35;34.50;;;12.80;99.90;;;;;;2092643;28;20032;-72
2023/04/29 03:12:19;;;;;;;45.63;34.45;;;12.90;99.90;;;;;;2092610;28;20051;-72
2023/04/29 03:13:20;;;;;;;50.13;35.85;;;12.90;99.90;;;;;;2090198;28;20500;-72
2023/04/29 03:14:21;;;;;;;46.97;33.22;;;12.80;99.90;;;;;;2092920;28;20783;-72
2023/04/29 03:15:21;;;;;;;45.47;33.45;;;12.90;99.90;;;;;;2092009;28;20025;-73
2023/04/29 03:16:23;;;;;;;44.10;33.03;;;12.90;99.90;;;;;;2092759;28;20104;-72
2023/04/29 03:17:23;;;;;;;45.75;33.13;;;12.90;99.90;;;;;;2090125;28;20016;-72
2023/04/29 03:18:24;;;;;;;41.35;32.00;;;12.90;99.90;;;;;;2089210;28;20028;-72
2023/04/29 03:19:24;;;;;;;46.47;32.67;;;12.90;99.90;;;;;;2090906;28;20025;-72
2023/04/29 03:20:25;;;;;;;43.00;31.95;;;12.90;99.90;;;;;;2091734;28;20913;-72
2023/04/29 03:21:26;;;;;;;41.55;31.45;;;12.90;99.90;;;;;;2090475;28;20055;-72
2023/04/29 03:22:27;;;;;;;45.00;32.83;;;12.80;99.90;;;;;;2092657;28;20078;-72
2023/04/29 03:23:27;;;;;;;39.10;30.08;;;12.80;99.90;;;;;;2090357;28;20071;-72
2023/04/29 03:24:28;;;;;;;42.92;31.02;;;12.80;99.90;;;;;;2089156;28;20024;-72
2023/04/29 03:25:29;;;;;;;40.22;30.67;;;12.80;99.90;;;;;;2091928;28;20028;-72
2023/04/29 03:26:29;;;;;;;41.55;31.13;;;12.80;99.90;;;;;;2089996;28;20091;-72
2023/04/29 03:27:30;;;;;;;44.00;31.25;;;12.80;99.90;;;;;;2092383;28;20016;-72
2023/04/29 03:28:30;;;;;;;38.75;29.95;;;12.80;99.90;;;;;;2090626;28;20028;-72
2023/04/29 03:29:31;;;;;;;42.30;30.40;;;12.80;99.90;;;;;;2090278;28;20100;-72
2023/04/29 03:30:32;;;;;;;43.83;31.30;;;12.80;99.90;;;;;;2091347;28;20028;-73
2023/04/29 03:31:32;;;;;;;39.90;29.67;;;12.80;99.90;;;;;;2094056;28;20025;-72
2023/04/29 03:32:33;;;;;;;39.28;29.58;;;12.70;99.90;;;;;;2090989;28;20078;-72
2023/04/29 03:33:34;;;;;;;41.95;31.25;;;12.70;99.90;;;;;;2094795;28;20016;-72
2023/04/29 03:34:34;;;;;;;43.15;30.98;;;12.70;99.90;;;;;;2093696;28;20027;-72
2023/04/29 03:35:35;;;;;;;42.67;31.48;;;12.70;99.90;;;;;;2095038;28;20103;-72
2023/04/29 03:36:36;;;;;;;38.63;27.95;;;12.70;99.90;;;;;;2085960;28;20031;-72
2023/04/29 03:37:36;;;;;;;29.27;22.70;;;12.70;99.90;;;;;;2095049;28;20070;-72
2023/04/29 03:38:37;;;;;;;41.70;28.88;;;12.70;99.90;;;;;;2093714;28;20025;-72
2023/04/29 03:39:37;;;;;;;41.45;31.45;;;12.70;99.90;;;;;;2093686;28;20049;-72
2023/04/29 03:40:39;;;;;;;34.47;27.13;;;12.70;99.90;;;;;;2093649;28;20022;-72
2023/04/29 03:41:39;;;;;;;41.60;29.70;;;12.70;99.90;;;;;;2092319;28;20654;-72
2023/04/29 03:42:40;;;;;;;42.90;30.27;;;12.70;99.90;;;;;;2090606;28;20025;-72
2023/04/29 03:43:42;;;;;;;42.03;30.77;;;12.70;99.90;;;;;;2092730;28;20094;-72
2023/04/29 03:44:43;;;;;;;31.50;25.65;;;12.70;99.90;;;;;;2092293;28;20024;-72
2023/04/29 03:45:44;;;;;;;38.65;29.05;;;12.70;99.90;;;;;;2093334;28;20063;-72
2023/04/29 03:46:44;;;;;;;37.70;28.80;;;12.70;99.90;;;;;;2093463;28;20060;-72
2023/04/29 03:47:45;;;;;;;39.60;29.02;;;12.70;99.90;;;;;;2094488;28;20021;-72
2023/04/29 03:48:45;;;;;;;33.45;27.30;;;12.70;99.90;;;;;;2092871;28;20020;-72
2023/04/29 03:49:46;;;;;;;37.17;29.40;;;12.70;99.90;;;;;;2093097;28;20039;-73
2023/04/29 03:50:46;;;;;;;37.65;26.70;;;12.70;99.90;;;;;;2092876;28;20025;-73
2023/04/29 03:51:47;;;;;;;36.22;28.83;;;12.70;99.90;;;;;;2095395;28;20021;-72
2023/04/29 03:52:48;;;;;;;35.50;27.65;;;12.70;99.90;;;;;;2093109;28;20586;-72
2023/04/29 03:53:49;;;;;;;39.70;30.02;;;12.70;99.90;;;;;;2094117;28;20027;-72
2023/04/29 03:54:50;;;;;;;38.28;28.95;;;12.70;99.90;;;;;;2093076;28;20103;-72
2023/04/29 03:55:50;;;;;;;40.05;29.95;;;12.70;99.90;;;;;;2092329;28;20487;-72
2023/04/29 03:56:51;;;;;;;37.47;27.85;;;12.70;99.90;;;;;;2092031;28;20036;-72
2023/04/29 03:57:51;;;;;;;35.20;26.95;;;12.70;99.90;;;;;;2093472;28;20017;-72
2023/04/29 03:58:52;;;;;;;34.55;28.27;;;12.70;99.90;;;;;;2085901;28;20025;-72
2023/04/29 03:59:53;;;;;;;38.75;27.42;;;12.70;99.90;;;;;;2092973;28;20451;-72
2023/04/29 04:00:54;;;;;;;36.80;29.10;;;12.70;99.90;;;;;;2094468;28;20115;-72
2023/04/29 04:01:54;;;;;;;36.22;28.65;;;12.70;99.90;;;;;;2093034;28;20032;-72
2023/04/29 04:02:55;;;;;;;35.83;28.40;;;12.70;99.90;;;;;;2093258;28;20522;-72
2023/04/29 04:03:56;;;;;;;37.25;27.55;;;12.70;99.90;;;;;;2092943;28;20024;-72
2023/04/29 04:04:57;;;;;;;33.45;26.70;;;12.60;99.90;;;;;;2094579;28;20028;-73
2023/04/29 04:05:58;;;;;;;32.58;25.73;;;12.60;99.90;;;;;;2095034;28;20024;-73
2023/04/29 04:06:59;;;;;;;33.63;27.60;;;12.60;99.90;;;;;;2093200;28;20027;-73
2023/04/29 04:08:00;;;;;;;32.20;25.35;;;12.60;99.90;;;;;;2095472;28;20548;-72
2023/04/29 04:09:00;;;;;;;32.75;27.30;;;12.50;99.90;;;;;;2093425;28;20987;-72
2023/04/29 04:10:01;;;;;;;33.50;27.25;;;12.50;99.90;;;;;;2093002;28;20029;-72
2023/04/29 04:11:02;;;;;;;34.90;27.83;;;12.50;99.90;;;;;;2092824;28;20033;-72
2023/04/29 04:12:03;;;;;;;37.00;27.55;;;12.50;99.90;;;;;;2091675;28;20098;-72
2023/04/29 04:13:03;;;;;;;36.20;27.48;;;12.50;99.90;;;;;;2091967;28;20074;-72
2023/04/29 04:14:04;;;;;;;32.25;27.20;;;12.50;99.90;;;;;;2091747;28;20074;-72
2023/04/29 04:15:05;;;;;;;33.80;26.02;;;12.50;99.90;;;;;;2093147;28;20020;-72
2023/04/29 04:16:06;;;;;;;32.25;26.42;;;12.50;99.90;;;;;;2091494;28;20035;-72
2023/04/29 04:17:06;;;;;;;31.27;25.52;;;12.50;99.90;;;;;;2092035;28;20029;-72
2023/04/29 04:18:07;;;;;;;30.60;25.83;;;12.50;99.90;;;;;;2090713;28;20481;-72
2023/04/29 04:19:08;;;;;;;32.60;26.30;;;12.50;99.90;;;;;;2092958;28;20024;-72
2023/04/29 04:20:09;;;;;;;31.80;26.60;;;12.50;99.90;;;;;;2092313;28;20028;-72
2023/04/29 04:21:12;;;;;;;34.97;25.55;;;12.50;99.90;;;;;;2090435;28;20056;-72
2023/04/29 04:22:12;;;;;;;36.22;26.20;;;12.50;99.90;;;;;;2093206;28;20040;-72
2023/04/29 04:23:13;;;;;;;32.83;25.45;;;12.50;99.90;;;;;;2094309;28;20028;-72
2023/04/29 04:24:14;;;;;;;31.05;24.10;;;12.50;99.90;;;;;;2092118;28;20028;-73
2023/04/29 04:25:14;;;;;;;30.75;25.30;;;12.50;99.90;;;;;;2091627;28;20033;-73
2023/04/29 04:26:15;;;;;;;30.15;23.58;;;12.50;99.90;;;;;;2091869;28;20025;-72
2023/04/29 04:27:15;;;;;;;30.45;23.63;;;12.50;99.90;;;;;;2093839;28;20416;-73
2023/04/29 04:28:16;;;;;;;30.90;26.23;;;12.50;99.90;;;;;;2093586;28;20070;-72
2023/04/29 04:29:16;;;;;;;32.28;25.90;;;12.50;99.90;;;;;;2092446;28;20036;-72
2023/04/29 04:30:17;;;;;;;31.10;26.15;;;12.50;99.90;;;;;;2092199;28;20028;-72
2023/04/29 04:31:17;;;;;;;33.88;26.55;;;12.50;99.90;;;;;;2092606;28;20811;-72
2023/04/29 04:32:18;;;;;;;30.00;24.70;;;12.50;99.90;;;;;;2091392;28;20055;-72
2023/04/29 04:33:18;;;;;;;31.80;26.77;;;12.50;99.90;;;;;;2092728;28;20032;-72
2023/04/29 04:34:19;;;;;;;31.38;23.88;;;12.50;99.90;;;;;;2091769;28;20025;-72
2023/04/29 04:35:19;;;;;;;25.90;21.40;;;12.50;99.90;;;;;;2095443;28;20652;-72
2023/04/29 04:36:20;;;;;;;29.55;24.77;;;12.50;99.90;;;;;;2093758;28;20035;-72
2023/04/29 04:37:21;;;;;;;27.95;23.38;;;12.50;99.90;;;;;;2092077;28;20028;-72
2023/04/29 04:38:24;;;;;;;30.23;22.63;;;12.50;99.90;;;;;;2095232;28;20057;-72
2023/04/29 04:39:25;;;;;;;32.47;25.50;;;12.60;99.90;;;;;;2094060;28;20020;-72
2023/04/29 04:40:26;;;;;;;27.92;23.00;;;12.60;99.90;;;;;;2093849;28;20033;-72
2023/04/29 04:41:30;;;;;;;29.65;24.23;;;12.60;99.90;;;;;;2091247;28;20048;-72
2023/04/29 04:42:30;;;;;;;30.23;23.90;;;12.60;99.90;;;;;;2091585;28;20557;-73
2023/04/29 04:43:31;;;;;;;31.58;24.23;;;12.60;99.90;;;;;;2093300;28;20388;-73
2023/04/29 04:44:32;;;;;;;30.27;25.20;;;12.60;99.90;;;;;;2091795;28;20560;-72
2023/04/29 04:45:33;;;;;;;27.17;23.95;;;12.60;99.90;;;;;;2091270;28;20021;-72
2023/04/29 04:46:34;;;;;;;29.48;24.30;;;12.60;99.90;;;;;;2093333;28;20029;-72
2023/04/29 04:47:35;;;;;;;29.42;24.95;;;12.60;99.90;;;;;;2090823;28;20087;-72
2023/04/29 04:48:35;;;;;;;26.73;23.48;;;12.60;99.90;;;;;;2093572;28;20628;-73
2023/04/29 04:49:36;;;;;;;29.40;24.23;;;12.60;99.90;;;;;;2091221;28;20021;-73
2023/04/29 04:50:36;;;;;;;31.35;25.75;;;12.60;99.90;;;;;;2091073;28;20032;-72
2023/04/29 04:51:37;;;;;;;32.88;24.98;;;12.60;99.90;;;;;;2092530;28;20032;-72
2023/04/29 04:52:38;;;;;;;31.23;25.58;;;12.60;99.90;;;;;;2092728;28;20017;-72
2023/04/29 04:53:39;;;;;;;26.75;22.38;;;12.60;99.90;;;;;;2092670;28;20029;-73
2023/04/29 04:54:39;;;;;;;31.80;25.00;;;12.60;99.90;;;;;;2084886;28;20017;-73
2023/04/29 04:55:40;;;;;;;28.73;24.77;;;12.60;99.90;;;;;;2082883;28;20033;-72
2023/04/29 04:56:40;;;;;;;27.92;24.20;;;12.50;99.90;;;;;;2092726;28;20541;-72
2023/04/29 04:57:41;;;;;;;31.33;25.75;;;12.60;99.90;;;;;;2094159;28;20111;-73
2023/04/29 04:58:42;;;;;;;29.27;24.17;;;12.60;99.90;;;;;;2093897;28;20036;-72
2023/04/29 04:59:42;;;;;;;26.33;22.20;;;12.60;99.90;;;;;;2092748;28;20021;-73
2023/04/29 05:00:44;;;;;;;30.63;25.73;;;12.50;99.90;;;;;;2092285;28;20099;-72
2023/04/29 05:01:45;;;;;;;34.67;26.75;;;12.50;99.90;;;;;;2093078;28;20032;-72
2023/04/29 05:02:45;;;;;;;27.15;23.65;;;12.50;99.90;;;;;;2093312;28;20796;-73
2023/04/29 05:03:46;;;;;;;30.00;24.13;;;12.50;99.90;;;;;;2095009;28;20263;-73
2023/04/29 05:04:46;;;;;;;29.48;25.05;;;12.50;99.90;;;;;;2091758;28;20031;-73
2023/04/29 05:05:53;;;;;;;33.08;26.77;;;12.50;99.90;;;;;;2093215;28;20023;-72
2023/04/29 05:06:54;;;;;;;33.38;25.17;;;12.50;99.90;;;;;;2093113;28;20044;-72
2023/04/29 05:07:54;;;;;;;34.17;28.05;;;12.50;99.90;;;;;;2092778;28;20498;-72
2023/04/29 05:08:55;;;;;;;30.48;26.42;;;12.50;99.90;;;;;;2090985;28;20021;-72
2023/04/29 05:09:55;;;;;;;31.63;26.50;;;12.50;99.90;;;;;;2089616;28;20426;-72
2023/04/29 05:10:57;;;;;;;31.73;26.88;;;12.40;99.90;;;;;;2091263;28;20025;-72
2023/04/29 05:11:58;;;;;;;33.65;28.65;;;12.40;99.90;;;;;;2092723;28;20112;-72
2023/04/29 05:12:58;;;;;;;37.15;27.75;;;12.40;99.90;;;;;;2093157;28;20021;-73
2023/04/29 05:13:59;;;;;;;31.30;27.15;;;12.40;99.90;;;;;;2093572;28;20099;-72
2023/04/29 05:15:00;;;;;;;32.25;27.50;;;12.50;99.90;;;;;;2091718;28;20146;-72
2023/04/29 05:16:03;;;;;;;30.55;26.25;;;12.50;99.90;;;;;;2093007;28;20033;-73